createdAt,value
2023-01-26T00:01:30.362Z,101700.00
2023-01-26T00:04:00.640Z,101703.00
2023-01-26T00:06:30.573Z,101702.00
2023-01-26T00:09:00.432Z,101697.00
2023-01-26T00:11:31.732Z,101696.00
2023-01-26T00:14:04.388Z,101691.00
2023-01-26T00:16:34.229Z,101690.00
2023-01-26T00:19:04.820Z,101695.00
2023-01-26T00:21:35.026Z,101693.00
2023-01-26T00:24:04.986Z,101684.00
2023-01-26T00:26:34.983Z,101690.00
2023-01-26T00:29:07.416Z,101682.00
2023-01-26T00:31:37.342Z,101674.00
2023-01-26T00:34:07.328Z,101670.00
2023-01-26T00:36:37.757Z,101673.00
2023-01-26T00:39:07.626Z,101671.00
2023-01-26T00:41:49.975Z,101668.00
2023-01-26T00:44:22.416Z,101680.00
2023-01-26T00:46:52.398Z,101667.00
2023-01-26T00:49:22.283Z,101671.00
2023-01-26T00:51:52.227Z,101673.00
2023-01-26T00:54:22.121Z,101671.00
2023-01-26T00:56:51.986Z,101668.00
2023-01-26T00:59:24.746Z,101666.00
2023-01-26T01:01:55.796Z,101668.00
2023-01-26T01:04:25.661Z,101664.00
2023-01-26T01:06:55.529Z,101658.00
2023-01-26T01:09:25.385Z,101658.00
2023-01-26T01:11:55.306Z,101651.00
2023-01-26T01:14:27.783Z,101659.00
2023-01-26T01:16:57.724Z,101656.00
2023-01-26T01:19:27.905Z,101653.00
2023-01-26T01:21:57.903Z,101656.00
2023-01-26T01:24:27.961Z,101653.00
2023-01-26T01:26:57.800Z,101652.00
2023-01-26T01:29:30.505Z,101648.00
2023-01-26T01:32:00.420Z,101647.00
2023-01-26T01:34:30.573Z,101644.00
2023-01-26T01:37:00.649Z,101645.00
2023-01-26T01:39:30.746Z,101649.00
2023-01-26T01:42:00.634Z,101649.00
2023-01-26T01:44:33.368Z,101637.00
2023-01-26T01:47:07.414Z,101639.00
2023-01-26T01:49:41.951Z,101626.00
2023-01-26T01:52:17.622Z,101628.00
2023-01-26T01:54:52.451Z,101619.00
2023-01-26T01:57:30.370Z,101627.00
2023-01-26T02:00:10.509Z,101621.00
2023-01-26T02:02:41.406Z,101624.00
2023-01-26T02:05:22.408Z,101621.00
2023-01-26T02:07:54.250Z,101616.00
2023-01-26T02:10:24.920Z,101618.00
2023-01-26T02:13:00.741Z,101615.00
2023-01-26T02:15:34.018Z,101608.00
2023-01-26T02:18:06.689Z,101612.00
2023-01-26T02:20:45.830Z,101596.00
2023-01-26T02:23:31.990Z,101593.00
2023-01-26T02:26:11.354Z,101593.00
2023-01-26T02:28:42.833Z,101595.00
2023-01-26T02:31:14.227Z,101579.00
2023-01-26T02:33:45.585Z,101588.00
2023-01-26T02:36:22.865Z,101580.00
2023-01-26T02:39:02.015Z,101574.00
2023-01-26T02:41:47.086Z,101563.00
2023-01-26T02:44:17.065Z,101553.00
2023-01-26T02:46:46.901Z,101554.00
2023-01-26T02:49:29.330Z,101546.00
2023-01-26T02:51:59.663Z,101547.00
2023-01-26T02:54:42.053Z,101549.00
2023-01-26T02:57:14.502Z,101556.00
2023-01-26T02:59:44.464Z,101553.00
2023-01-26T03:02:14.726Z,101561.00
2023-01-26T03:04:44.931Z,101552.00
2023-01-26T03:07:14.845Z,101557.00
2023-01-26T03:09:44.749Z,101555.00
2023-01-26T03:12:17.214Z,101555.00
2023-01-26T03:15:07.074Z,101555.00
2023-01-26T03:17:36.987Z,101557.00
2023-01-26T03:20:22.050Z,101545.00
2023-01-26T03:23:04.241Z,101555.00
2023-01-26T03:25:55.068Z,101558.00
2023-01-26T03:28:27.791Z,101553.00
2023-01-26T03:31:00.264Z,101559.00
2023-01-26T03:33:30.165Z,101554.00
2023-01-26T03:36:00.045Z,101550.00
2023-01-26T03:38:29.905Z,101547.00
2023-01-26T03:41:13.726Z,101547.00
2023-01-26T03:43:58.703Z,101556.00
2023-01-26T03:46:41.149Z,101546.00
2023-01-26T03:49:23.722Z,101552.00
2023-01-26T03:52:06.094Z,101554.00
2023-01-26T03:54:48.501Z,101553.00
2023-01-26T03:57:18.383Z,101554.00
2023-01-26T03:59:50.840Z,101544.00
2023-01-26T04:02:33.205Z,101545.00
2023-01-26T04:05:15.722Z,101543.00
2023-01-26T04:07:58.166Z,101535.00
2023-01-26T04:10:30.536Z,101542.00
2023-01-26T04:13:13.146Z,101537.00
2023-01-26T04:15:58.484Z,101542.00
2023-01-26T04:18:41.597Z,101536.00
2023-01-26T04:21:24.049Z,101538.00
2023-01-26T04:23:56.579Z,101533.00
2023-01-26T04:26:27.279Z,101526.00
2023-01-26T04:28:57.159Z,101532.00
2023-01-26T04:31:29.621Z,101524.00
2023-01-26T04:33:59.536Z,101517.00
2023-01-26T04:36:29.516Z,101520.00
2023-01-26T04:38:59.846Z,101511.00
2023-01-26T04:41:29.763Z,101520.00
2023-01-26T04:43:59.719Z,101507.00
2023-01-26T04:46:33.349Z,101504.00
2023-01-26T04:49:03.254Z,101504.00
2023-01-26T04:51:33.105Z,101499.00
2023-01-26T04:54:03.063Z,101499.00
2023-01-26T04:56:35.974Z,101494.00
2023-01-26T04:59:09.402Z,101496.00
2023-01-26T05:01:41.827Z,101489.00
2023-01-26T05:04:13.650Z,101492.00
2023-01-26T05:06:44.725Z,101494.00
2023-01-26T05:09:14.891Z,101492.00
2023-01-26T05:11:44.869Z,101484.00
2023-01-26T05:14:15.405Z,101483.00
2023-01-26T05:16:47.871Z,101486.00
2023-01-26T05:19:17.735Z,101489.00
2023-01-26T05:21:47.593Z,101491.00
2023-01-26T05:24:17.806Z,101494.00
2023-01-26T05:26:47.840Z,101496.00
2023-01-26T05:29:17.898Z,101498.00
2023-01-26T05:31:50.493Z,101496.00
2023-01-26T05:34:20.346Z,101491.00
2023-01-26T05:36:50.190Z,101500.00
2023-01-26T05:39:20.085Z,101496.00
2023-01-26T05:41:49.933Z,101497.00
2023-01-26T05:44:19.818Z,101507.00
2023-01-26T05:46:52.515Z,101501.00
2023-01-26T05:49:22.484Z,101494.00
2023-01-26T05:51:52.370Z,101502.00
2023-01-26T05:54:22.403Z,101497.00
2023-01-26T05:56:53.392Z,101484.00
2023-01-26T05:59:23.313Z,101488.00
2023-01-26T06:01:55.785Z,101485.00
2023-01-26T06:04:25.956Z,101492.00
2023-01-26T06:06:56.516Z,101493.00
2023-01-26T06:09:28.785Z,101494.00
2023-01-26T06:12:00.147Z,101480.00
2023-01-26T06:14:29.983Z,101496.00
2023-01-26T06:17:02.518Z,101499.00
2023-01-26T06:19:32.384Z,101500.00
2023-01-26T06:22:02.291Z,101501.00
2023-01-26T06:24:32.382Z,101503.00
2023-01-26T06:27:02.249Z,101505.00
2023-01-26T06:29:32.513Z,101500.00
2023-01-26T06:32:04.937Z,101507.00
2023-01-26T06:34:34.833Z,101505.00
2023-01-26T06:37:04.677Z,101507.00
2023-01-26T06:39:34.622Z,101511.00
2023-01-26T06:42:04.495Z,101515.00
2023-01-26T06:44:34.392Z,101506.00
2023-01-26T06:47:08.810Z,101505.00
2023-01-26T06:49:38.705Z,101503.00
2023-01-26T06:52:25.895Z,101510.00
2023-01-26T06:54:56.260Z,101506.00
2023-01-26T06:57:26.351Z,101505.00
2023-01-26T06:59:57.744Z,101510.00
2023-01-26T07:02:30.248Z,101510.00
2023-01-26T07:05:00.979Z,101507.00
2023-01-26T07:07:40.030Z,101510.00
2023-01-26T07:10:11.764Z,101508.00
2023-01-26T07:12:43.710Z,101508.00
2023-01-26T07:15:15.756Z,101509.00
2023-01-26T07:17:48.224Z,101508.00
2023-01-26T07:20:19.073Z,101503.00
2023-01-26T07:22:50.164Z,101501.00
2023-01-26T07:25:20.555Z,101507.00
2023-01-26T07:27:50.698Z,101505.00
2023-01-26T07:30:21.054Z,101502.00
2023-01-26T07:32:53.619Z,101505.00
2023-01-26T07:35:23.504Z,101508.00
2023-01-26T07:37:53.433Z,101507.00
2023-01-26T07:40:23.434Z,101517.00
2023-01-26T07:42:53.418Z,101509.00
2023-01-26T07:45:23.251Z,101509.00
2023-01-26T07:47:57.750Z,101507.00
2023-01-26T07:50:27.716Z,101501.00
2023-01-26T07:52:57.564Z,101503.00
2023-01-26T07:55:27.906Z,101501.00
2023-01-26T07:57:57.906Z,101509.00
2023-01-26T08:00:28.055Z,101512.00
2023-01-26T08:03:00.540Z,101518.00
2023-01-26T08:05:30.421Z,101516.00
2023-01-26T08:08:01.156Z,101519.00
2023-01-26T08:10:32.032Z,101521.00
2023-01-26T08:13:02.856Z,101510.00
2023-01-26T08:15:32.962Z,101514.00
2023-01-26T08:18:06.051Z,101515.00
2023-01-26T08:20:35.925Z,101512.00
2023-01-26T08:23:05.799Z,101518.00
2023-01-26T08:25:35.683Z,101514.00
2023-01-26T08:28:05.594Z,101515.00
2023-01-26T08:30:36.758Z,101510.00
2023-01-26T08:33:09.772Z,101525.00
2023-01-26T08:35:39.634Z,101516.00
2023-01-26T08:38:09.525Z,101518.00
2023-01-26T08:40:39.414Z,101520.00
2023-01-26T08:43:09.289Z,101528.00
2023-01-26T08:45:39.165Z,101521.00
2023-01-26T08:48:12.219Z,101525.00
2023-01-26T08:50:42.100Z,101519.00
2023-01-26T08:53:11.966Z,101517.00
2023-01-26T08:55:41.841Z,101517.00
2023-01-26T08:58:11.725Z,101520.00
2023-01-26T09:00:41.601Z,101520.00
2023-01-26T09:03:14.192Z,101529.00
2023-01-26T09:05:44.142Z,101525.00
2023-01-26T09:08:14.048Z,101528.00
2023-01-26T09:10:45.297Z,101527.00
2023-01-26T09:13:15.213Z,101528.00
2023-01-26T09:15:45.452Z,101526.00
2023-01-26T09:18:18.103Z,101527.00
2023-01-26T09:20:48.027Z,101526.00
2023-01-26T09:23:18.293Z,101542.00
2023-01-26T09:25:48.138Z,101527.00
2023-01-26T09:28:18.014Z,101538.00
2023-01-26T09:30:47.980Z,101544.00
2023-01-26T09:33:21.605Z,101552.00
2023-01-26T09:35:51.726Z,101540.00
2023-01-26T09:38:21.612Z,101540.00
2023-01-26T09:41:02.004Z,101543.00
2023-01-26T09:43:41.686Z,101536.00
2023-01-26T09:46:25.709Z,101537.00
2023-01-26T09:49:08.609Z,101529.00
2023-01-26T09:51:42.015Z,101529.00
2023-01-26T09:54:24.646Z,101530.00
2023-01-26T09:56:54.623Z,101524.00
2023-01-26T09:59:35.012Z,101533.00
2023-01-26T10:02:17.338Z,101527.00
2023-01-26T10:04:54.702Z,101529.00
2023-01-26T10:07:24.615Z,101531.00
2023-01-26T10:09:56.665Z,101525.00
2023-01-26T10:12:31.022Z,101529.00
2023-01-26T10:15:07.859Z,101519.00
2023-01-26T10:17:42.526Z,101520.00
2023-01-26T10:20:25.587Z,101511.00
2023-01-26T10:22:58.422Z,101519.00
2023-01-26T10:25:37.695Z,101516.00
2023-01-26T10:28:17.032Z,101506.00
2023-01-26T10:30:51.366Z,101514.00
2023-01-26T10:33:26.967Z,101513.00
2023-01-26T10:35:59.505Z,101505.00
2023-01-26T10:38:44.006Z,101496.00
2023-01-26T10:41:31.433Z,101491.00
2023-01-26T10:44:04.927Z,101490.00
2023-01-26T10:46:38.173Z,101485.00
2023-01-26T10:49:19.926Z,101494.00
2023-01-26T10:52:14.295Z,101498.00
2023-01-26T10:54:44.809Z,101491.00
2023-01-26T10:57:25.753Z,101480.00
2023-01-26T11:00:00.219Z,101482.00
2023-01-26T11:02:32.484Z,101471.00
2023-01-26T11:05:22.409Z,101472.00
2023-01-26T11:08:00.290Z,101476.00
2023-01-26T11:10:33.502Z,101471.00
2023-01-26T11:13:20.214Z,101458.00
2023-01-26T11:15:53.107Z,101464.00
2023-01-26T11:18:42.597Z,101467.00
2023-01-26T11:21:18.060Z,101463.00
2023-01-26T11:24:03.249Z,101467.00
2023-01-26T11:27:17.884Z,101464.00
2023-01-26T11:30:06.795Z,101455.00
2023-01-26T11:32:47.403Z,101461.00
2023-01-26T11:35:27.888Z,101449.00
2023-01-26T11:38:09.688Z,101455.00
2023-01-26T11:40:50.326Z,101449.00
2023-01-26T11:43:52.183Z,101460.00
2023-01-26T11:46:42.192Z,101436.00
2023-01-26T11:49:28.020Z,101438.00
2023-01-26T11:52:14.402Z,101437.00
2023-01-26T11:55:03.008Z,101446.00
2023-01-26T11:57:43.974Z,101442.00
2023-01-26T12:00:29.472Z,101426.00
2023-01-26T12:03:06.504Z,101421.00
2023-01-26T12:05:56.567Z,101429.00
2023-01-26T12:08:38.352Z,101420.00
2023-01-26T12:11:28.018Z,101415.00
2023-01-26T12:14:15.514Z,101410.00
2023-01-26T12:17:16.843Z,101409.00
2023-01-26T12:19:55.658Z,101397.00
2023-01-26T12:22:34.156Z,101400.00
2023-01-26T12:25:21.019Z,101391.00
2023-01-26T12:27:59.125Z,101384.00
2023-01-26T12:30:38.833Z,101390.00
2023-01-26T12:33:08.940Z,101387.00
2023-01-26T12:36:17.153Z,101397.00
2023-01-26T12:39:08.136Z,101382.00
2023-01-26T12:42:02.093Z,101383.00
2023-01-26T12:44:40.314Z,101394.00
2023-01-26T12:47:20.035Z,101383.00
2023-01-26T12:49:59.018Z,101384.00
2023-01-26T12:52:35.041Z,101387.00
2023-01-26T12:55:15.600Z,101382.00
2023-01-26T12:57:51.260Z,101384.00
2023-01-26T13:00:25.668Z,101379.00
2023-01-26T13:03:02.359Z,101372.00
2023-01-26T13:05:34.416Z,101375.00
2023-01-26T13:08:44.373Z,101377.00
2023-01-26T13:11:44.466Z,101376.00
2023-01-26T13:14:40.315Z,101387.00
2023-01-26T13:17:44.386Z,101378.00
2023-01-26T13:20:49.549Z,101387.00
2023-01-26T13:23:52.985Z,101394.00
2023-01-26T13:26:53.180Z,101380.00
2023-01-26T13:29:36.331Z,101383.00
2023-01-26T13:32:58.120Z,101384.00
2023-01-26T13:35:29.469Z,101385.00
2023-01-26T13:38:17.229Z,101400.00
2023-01-26T13:40:50.496Z,101403.00
2023-01-26T13:43:30.014Z,101403.00
2023-01-26T13:46:13.048Z,101406.00
2023-01-26T13:48:53.067Z,101410.00
2023-01-26T13:51:26.383Z,101412.00
2023-01-26T13:54:06.456Z,101414.00
2023-01-26T13:56:40.050Z,101412.00
2023-01-26T13:59:15.679Z,101407.00
2023-01-26T14:01:47.808Z,101407.00
2023-01-26T14:04:21.495Z,101418.00
2023-01-26T14:06:56.443Z,101409.00
2023-01-26T14:09:30.283Z,101408.00
2023-01-26T14:12:03.949Z,101412.00
2023-01-26T14:14:38.305Z,101400.00
2023-01-26T14:17:27.373Z,101411.00
2023-01-26T14:19:58.468Z,101398.00
2023-01-26T14:22:28.505Z,101414.00
2023-01-26T14:25:00.975Z,101411.00
2023-01-26T14:27:39.172Z,101407.00
2023-01-26T14:30:28.924Z,101399.00
2023-01-26T14:33:06.478Z,101411.00
2023-01-26T14:35:37.211Z,101408.00
2023-01-26T14:38:19.945Z,101407.00
2023-01-26T14:40:54.838Z,101409.00
2023-01-26T14:43:27.151Z,101414.00
2023-01-26T14:46:02.490Z,101416.00
2023-01-26T14:48:37.139Z,101419.00
2023-01-26T14:51:09.580Z,101408.00
2023-01-26T14:53:39.920Z,101415.00
2023-01-26T14:56:22.010Z,101428.00
2023-01-26T14:58:55.809Z,101423.00
2023-01-26T15:01:29.147Z,101418.00
2023-01-26T15:04:06.124Z,101428.00
2023-01-26T15:06:36.590Z,101425.00
2023-01-26T15:09:09.450Z,101432.00
2023-01-26T15:11:55.874Z,101426.00
2023-01-26T15:14:37.317Z,101418.00
2023-01-26T15:17:08.228Z,101427.00
2023-01-26T15:19:44.870Z,101426.00
2023-01-26T15:22:24.360Z,101423.00
2023-01-26T15:25:09.053Z,101415.00
2023-01-26T15:27:41.517Z,101422.00
2023-01-26T15:30:20.541Z,101414.00
2023-01-26T15:32:50.487Z,101420.00
2023-01-26T15:35:26.992Z,101422.00
2023-01-26T15:38:05.016Z,101426.00
2023-01-26T15:40:35.511Z,101428.00
2023-01-26T15:43:15.028Z,101426.00
2023-01-26T15:45:51.250Z,101428.00
2023-01-26T15:48:21.237Z,101433.00
2023-01-26T15:50:51.347Z,101426.00
2023-01-26T15:53:24.414Z,101425.00
2023-01-26T15:55:56.360Z,101421.00
2023-01-26T15:58:29.260Z,101423.00
2023-01-26T16:00:59.442Z,101426.00
2023-01-26T16:03:29.380Z,101423.00
2023-01-26T16:05:59.397Z,101425.00
2023-01-26T16:08:29.394Z,101428.00
2023-01-26T16:11:00.690Z,101425.00
2023-01-26T16:13:34.127Z,101432.00
2023-01-26T16:16:04.139Z,101441.00
2023-01-26T16:18:34.382Z,101439.00
2023-01-26T16:21:04.316Z,101437.00
2023-01-26T16:23:34.288Z,101440.00
2023-01-26T16:26:04.117Z,101432.00
2023-01-26T16:28:36.590Z,101434.00
2023-01-26T16:31:15.787Z,101447.00
2023-01-26T16:33:45.784Z,101420.00
2023-01-26T16:36:17.640Z,101424.00
2023-01-26T16:38:48.885Z,101415.00
2023-01-26T16:41:27.168Z,101432.00
2023-01-26T16:44:02.017Z,101420.00
2023-01-26T16:46:33.445Z,101418.00
2023-01-26T16:49:04.142Z,101422.00
2023-01-26T16:51:40.187Z,101422.00
2023-01-26T16:54:10.029Z,101427.00
2023-01-26T16:56:40.162Z,101420.00
2023-01-26T16:59:12.574Z,101426.00
2023-01-26T17:01:42.467Z,101415.00
2023-01-26T17:04:13.657Z,101424.00
2023-01-26T17:06:43.510Z,101431.00
2023-01-26T17:09:14.242Z,101429.00
2023-01-26T17:11:44.142Z,101434.00
2023-01-26T17:14:16.736Z,101428.00
2023-01-26T17:16:46.770Z,101429.00
2023-01-26T17:19:16.685Z,101431.00
2023-01-26T17:21:46.562Z,101425.00
2023-01-26T17:24:16.468Z,101436.00
2023-01-26T17:26:46.392Z,101430.00
2023-01-26T17:29:18.833Z,101433.00
2023-01-26T17:31:48.738Z,101422.00
2023-01-26T17:34:18.807Z,101432.00
2023-01-26T17:36:48.704Z,101432.00
2023-01-26T17:39:18.899Z,101426.00
2023-01-26T17:41:48.872Z,101421.00
2023-01-26T17:44:21.381Z,101426.00
2023-01-26T17:46:51.226Z,101418.00
2023-01-26T17:49:21.538Z,101430.00
2023-01-26T17:51:51.524Z,101434.00
2023-01-26T17:54:24.985Z,101441.00
2023-01-26T17:56:55.547Z,101434.00
2023-01-26T17:59:28.165Z,101437.00
2023-01-26T18:01:58.173Z,101443.00
2023-01-26T18:04:29.850Z,101442.00
2023-01-26T18:07:01.879Z,101447.00
2023-01-26T18:09:31.762Z,101451.00
2023-01-26T18:12:01.616Z,101444.00
2023-01-26T18:14:34.089Z,101448.00
2023-01-26T18:17:04.025Z,101458.00
2023-01-26T18:19:33.901Z,101461.00
2023-01-26T18:22:03.770Z,101461.00
2023-01-26T18:24:34.067Z,101459.00
2023-01-26T18:27:03.925Z,101459.00
2023-01-26T18:29:36.449Z,101457.00
2023-01-26T18:32:06.612Z,101457.00
2023-01-26T18:34:36.469Z,101449.00
2023-01-26T18:37:06.710Z,101454.00
2023-01-26T18:39:36.718Z,101451.00
2023-01-26T18:42:06.822Z,101453.00
2023-01-26T18:44:39.362Z,101457.00
2023-01-26T18:47:09.429Z,101453.00
2023-01-26T18:49:39.318Z,101449.00
2023-01-26T18:52:09.344Z,101460.00
2023-01-26T18:54:39.250Z,101454.00
2023-01-26T18:57:09.133Z,101456.00
2023-01-26T18:59:41.585Z,101458.00
2023-01-26T19:02:13.929Z,101456.00
2023-01-26T19:04:44.429Z,101456.00
2023-01-26T19:07:15.374Z,101462.00
2023-01-26T19:09:45.259Z,101466.00
2023-01-26T19:12:15.824Z,101466.00
2023-01-26T19:14:48.272Z,101477.00
2023-01-26T19:17:18.288Z,101469.00
2023-01-26T19:19:48.158Z,101477.00
2023-01-26T19:22:18.014Z,101463.00
2023-01-26T19:24:48.237Z,101467.00
2023-01-26T19:27:18.093Z,101470.00
2023-01-26T19:29:51.684Z,101472.00
2023-01-26T19:32:21.606Z,101469.00
2023-01-26T19:34:51.469Z,101479.00
2023-01-26T19:37:21.969Z,101471.00
2023-01-26T19:39:51.811Z,101469.00
2023-01-26T19:42:21.680Z,101468.00
2023-01-26T19:44:54.151Z,101472.00
2023-01-26T19:47:23.987Z,101465.00
2023-01-26T19:49:53.859Z,101464.00
2023-01-26T19:52:23.697Z,101461.00
2023-01-26T19:54:53.572Z,101459.00
2023-01-26T19:57:23.828Z,101461.00
2023-01-26T19:59:56.308Z,101467.00
2023-01-26T20:02:26.185Z,101466.00
2023-01-26T20:04:56.076Z,101469.00
2023-01-26T20:07:25.904Z,101467.00
2023-01-26T20:09:55.806Z,101472.00
2023-01-26T20:12:25.725Z,101471.00
2023-01-26T20:15:00.409Z,101475.00
2023-01-26T20:17:30.709Z,101478.00
2023-01-26T20:20:00.601Z,101473.00
2023-01-26T20:22:34.102Z,101470.00
2023-01-26T20:25:04.203Z,101474.00
2023-01-26T20:27:35.082Z,101469.00
2023-01-26T20:30:09.789Z,101461.00
2023-01-26T20:32:40.180Z,101466.00
2023-01-26T20:35:12.258Z,101466.00
2023-01-26T20:37:42.174Z,101467.00
2023-01-26T20:40:14.037Z,101468.00
2023-01-26T20:42:44.181Z,101476.00
2023-01-26T20:45:16.941Z,101474.00
2023-01-26T20:47:46.849Z,101471.00
2023-01-26T20:50:16.893Z,101468.00
2023-01-26T20:52:46.951Z,101476.00
2023-01-26T20:55:16.959Z,101473.00
2023-01-26T20:57:47.079Z,101477.00
2023-01-26T21:00:21.211Z,101470.00
2023-01-26T21:02:51.088Z,101482.00
2023-01-26T21:05:21.254Z,101478.00
2023-01-26T21:07:51.192Z,101471.00
2023-01-26T21:10:21.143Z,101475.00
2023-01-26T21:12:51.308Z,101468.00
2023-01-26T21:15:23.784Z,101466.00
2023-01-26T21:17:53.658Z,101471.00
2023-01-26T21:20:23.515Z,101471.00
2023-01-26T21:22:55.209Z,101471.00
2023-01-26T21:25:25.035Z,101474.00
2023-01-26T21:27:55.504Z,101466.00
2023-01-26T21:30:28.457Z,101473.00
2023-01-26T21:32:58.411Z,101464.00
2023-01-26T21:35:28.273Z,101466.00
2023-01-26T21:37:59.061Z,101467.00
2023-01-26T21:40:28.993Z,101466.00
2023-01-26T21:42:58.848Z,101472.00
2023-01-26T21:45:43.832Z,101463.00
2023-01-26T21:48:26.222Z,101467.00
2023-01-26T21:51:10.558Z,101463.00
2023-01-26T21:53:40.423Z,101464.00
2023-01-26T21:56:11.261Z,101468.00
2023-01-26T21:58:53.805Z,101474.00
2023-01-26T22:01:27.777Z,101473.00
2023-01-26T22:03:58.493Z,101477.00
2023-01-26T22:06:29.314Z,101479.00
2023-01-26T22:08:59.937Z,101476.00
2023-01-26T22:11:30.796Z,101484.00
2023-01-26T22:14:00.654Z,101486.00
2023-01-26T22:16:33.162Z,101473.00
2023-01-26T22:19:03.700Z,101479.00
2023-01-26T22:21:34.795Z,101479.00
2023-01-26T22:24:04.767Z,101478.00
2023-01-26T22:26:34.740Z,101483.00
2023-01-26T22:29:04.675Z,101479.00
2023-01-26T22:31:37.394Z,101485.00
2023-01-26T22:34:07.332Z,101483.00
2023-01-26T22:36:37.233Z,101484.00
2023-01-26T22:39:07.943Z,101483.00
2023-01-26T22:41:38.370Z,101481.00
2023-01-26T22:44:08.727Z,101485.00
2023-01-26T22:46:41.215Z,101479.00
2023-01-26T22:49:13.002Z,101486.00
2023-01-26T22:51:42.890Z,101479.00
2023-01-26T22:54:12.785Z,101484.00
2023-01-26T22:56:42.648Z,101482.00
2023-01-26T22:59:12.503Z,101480.00
2023-01-26T23:01:45.110Z,101481.00
2023-01-26T23:04:15.100Z,101479.00
2023-01-26T23:06:45.061Z,101470.00
2023-01-26T23:09:14.924Z,101476.00
2023-01-26T23:11:44.803Z,101478.00
2023-01-26T23:14:14.682Z,101475.00
2023-01-26T23:16:47.173Z,101474.00
2023-01-26T23:19:17.073Z,101471.00
2023-01-26T23:21:46.933Z,101470.00
2023-01-26T23:24:16.882Z,101468.00
2023-01-26T23:26:46.812Z,101461.00
2023-01-26T23:29:16.657Z,101459.00
2023-01-26T23:31:49.321Z,101461.00
2023-01-26T23:34:19.274Z,101461.00
2023-01-26T23:36:49.144Z,101466.00
2023-01-26T23:39:19.397Z,101462.00
2023-01-26T23:41:49.309Z,101468.00
2023-01-26T23:44:19.193Z,101464.00
2023-01-26T23:46:51.850Z,101467.00
2023-01-26T23:49:21.760Z,101467.00
2023-01-26T23:51:51.945Z,101474.00
2023-01-26T23:54:21.831Z,101475.00
2023-01-26T23:56:51.696Z,101472.00
2023-01-26T23:59:21.576Z,101478.00
